createdAt,value
2018-09-25T00:01:06.838Z,58.65
2018-09-25T00:03:42.405Z,59.43
2018-09-25T00:06:18.093Z,59.61
2018-09-25T00:08:53.541Z,60.31
2018-09-25T00:11:29.614Z,60.80
2018-09-25T00:14:05.432Z,60.89
2018-09-25T00:16:40.914Z,61.23
2018-09-25T00:19:16.461Z,62.10
2018-09-25T00:21:51.949Z,61.80
2018-09-25T00:24:27.465Z,62.00
2018-09-25T00:27:02.966Z,62.14
2018-09-25T00:29:38.492Z,62.07
2018-09-25T00:32:14.083Z,62.47
2018-09-25T00:34:49.381Z,62.52
2018-09-25T00:37:25.081Z,62.84
2018-09-25T00:40:00.484Z,62.16
2018-09-25T00:42:35.970Z,62.35
2018-09-25T00:45:11.688Z,62.20
2018-09-25T00:47:47.139Z,62.59
2018-09-25T00:50:22.825Z,63.26
2018-09-25T00:52:58.336Z,62.70
2018-09-25T00:55:33.913Z,63.31
2018-09-25T00:58:09.610Z,62.82
2018-09-25T01:00:45.015Z,62.57
2018-09-25T01:03:20.654Z,62.51
2018-09-25T01:05:56.053Z,62.47
2018-09-25T01:08:31.428Z,62.01
2018-09-25T01:11:06.950Z,61.65
2018-09-25T01:13:42.451Z,61.70
2018-09-25T01:16:17.763Z,61.68
2018-09-25T01:18:53.430Z,61.60
2018-09-25T01:21:29.306Z,61.77
2018-09-25T01:24:04.834Z,60.91
2018-09-25T01:26:40.420Z,60.67
2018-09-25T01:29:15.927Z,60.82
2018-09-25T01:31:51.502Z,60.82
2018-09-25T01:34:26.886Z,59.95
2018-09-25T01:37:02.301Z,60.39
2018-09-25T01:39:38.077Z,58.70
2018-09-25T01:42:13.512Z,58.96
2018-09-25T01:44:49.112Z,58.97
2018-09-25T01:47:24.623Z,59.63
2018-09-25T01:50:00.090Z,59.42
2018-09-25T01:52:35.679Z,59.07
2018-09-25T01:55:11.184Z,58.80
2018-09-25T01:57:46.607Z,58.35
2018-09-25T02:00:22.719Z,58.25
2018-09-25T02:02:58.544Z,58.89
2018-09-25T02:05:34.142Z,58.38
2018-09-25T02:08:09.703Z,57.65
2018-09-25T02:10:45.237Z,57.91
2018-09-25T02:13:20.636Z,58.39
2018-09-25T02:15:56.106Z,58.43
2018-09-25T02:18:31.720Z,58.33
2018-09-25T02:21:07.792Z,58.45
2018-09-25T02:23:43.420Z,58.35
2018-09-25T02:26:19.296Z,58.35
2018-09-25T02:28:56.448Z,58.40
2018-09-25T02:31:33.321Z,58.56
2018-09-25T02:34:09.032Z,57.36
2018-09-25T02:36:44.501Z,57.57
2018-09-25T02:39:19.912Z,58.02
2018-09-25T02:41:55.561Z,56.92
2018-09-25T02:44:30.996Z,57.63
2018-09-25T02:47:06.533Z,57.10
2018-09-25T02:49:41.822Z,57.59
2018-09-25T02:52:18.167Z,57.73
2018-09-25T02:54:53.657Z,57.62
2018-09-25T02:57:29.104Z,57.62
2018-09-25T03:00:04.262Z,57.45
2018-09-25T03:02:39.635Z,57.80
2018-09-25T03:05:15.308Z,56.41
2018-09-25T03:07:51.822Z,56.47
2018-09-25T03:10:27.196Z,56.96
2018-09-25T03:13:02.811Z,57.27
2018-09-25T03:15:38.357Z,56.30
2018-09-25T03:18:13.967Z,56.41
2018-09-25T03:20:49.457Z,56.46
2018-09-25T03:23:24.990Z,56.28
2018-09-25T03:26:01.068Z,56.08
2018-09-25T03:28:36.436Z,55.92
2018-09-25T03:31:12.215Z,56.84
2018-09-25T03:33:47.762Z,56.26
2018-09-25T03:36:23.170Z,55.98
2018-09-25T03:38:58.778Z,56.40
2018-09-25T03:41:35.285Z,55.30
2018-09-25T03:44:10.945Z,55.36
2018-09-25T03:46:46.504Z,54.53
2018-09-25T03:49:22.058Z,54.37
2018-09-25T03:51:57.673Z,54.14
2018-09-25T03:54:33.297Z,53.88
2018-09-25T03:57:08.846Z,53.76
2018-09-25T03:59:44.690Z,53.97
2018-09-25T04:02:20.148Z,53.62
2018-09-25T04:04:55.773Z,52.97
2018-09-25T04:07:31.213Z,52.74
2018-09-25T04:10:06.844Z,53.09
2018-09-25T04:12:42.287Z,53.15
2018-09-25T04:15:17.642Z,52.53
2018-09-25T04:17:53.377Z,52.63
2018-09-25T04:20:28.738Z,52.19
2018-09-25T04:23:04.235Z,51.52
2018-09-25T04:25:39.733Z,51.75
2018-09-25T04:28:15.223Z,52.41
2018-09-25T04:30:50.665Z,51.38
2018-09-25T04:33:26.232Z,52.52
2018-09-25T04:36:01.739Z,50.92
2018-09-25T04:38:37.073Z,49.56
2018-09-25T04:41:12.801Z,50.10
2018-09-25T04:43:48.206Z,49.54
2018-09-25T04:46:23.578Z,49.38
2018-09-25T04:48:59.224Z,49.94
2018-09-25T04:51:34.741Z,49.97
2018-09-25T04:54:11.094Z,50.30
2018-09-25T04:56:46.463Z,50.39
2018-09-25T04:59:22.130Z,50.71
2018-09-25T05:01:57.919Z,50.30
2018-09-25T05:04:33.449Z,49.77
2018-09-25T05:07:09.450Z,49.31
2018-09-25T05:09:45.126Z,49.88
2018-09-25T05:12:20.692Z,49.83
2018-09-25T05:14:56.638Z,49.29
2018-09-25T05:17:32.173Z,49.37
2018-09-25T05:20:07.952Z,49.24
2018-09-25T05:22:44.757Z,49.98
2018-09-25T05:25:21.112Z,49.45
2018-09-25T05:27:56.747Z,49.11
2018-09-25T05:30:32.552Z,50.75
2018-09-25T05:33:08.101Z,50.90
2018-09-25T05:35:44.357Z,48.56
2018-09-25T05:38:20.171Z,45.70
2018-09-25T05:40:55.785Z,43.58
2018-09-25T05:43:31.431Z,42.46
2018-09-25T05:46:06.952Z,40.44
2018-09-25T05:48:42.530Z,40.17
2018-09-25T05:51:17.841Z,38.29
2018-09-25T05:53:53.357Z,38.08
2018-09-25T05:56:29.299Z,38.28
2018-09-25T05:59:04.883Z,36.14
2018-09-25T06:01:40.263Z,36.30
2018-09-25T06:04:16.093Z,35.24
2018-09-25T06:06:51.906Z,34.64
2018-09-25T06:09:27.521Z,33.81
2018-09-25T06:12:02.792Z,32.82
2018-09-25T06:14:38.367Z,32.84
2018-09-25T06:17:14.008Z,32.91
2018-09-25T06:19:49.554Z,33.06
2018-09-25T06:22:25.749Z,32.14
2018-09-25T06:25:01.443Z,31.37
2018-09-25T06:27:37.476Z,30.98
2018-09-25T06:30:13.407Z,30.91
2018-09-25T06:32:49.751Z,29.56
2018-09-25T06:35:26.378Z,29.38
2018-09-25T06:38:02.211Z,29.18
2018-09-25T06:40:38.008Z,27.93
2018-09-25T06:43:13.829Z,28.30
2018-09-25T06:45:49.799Z,28.39
2018-09-25T06:48:25.408Z,28.01
2018-09-25T06:51:00.953Z,28.26
2018-09-25T06:53:36.698Z,28.58
2018-09-25T06:56:12.461Z,27.07
2018-09-25T06:58:47.906Z,27.56
2018-09-25T07:01:23.650Z,27.50
2018-09-25T07:03:59.832Z,26.84
2018-09-25T07:06:35.421Z,27.17
2018-09-25T07:09:13.466Z,26.70
2018-09-25T07:11:49.067Z,25.61
2018-09-25T07:14:24.744Z,25.86
2018-09-25T07:17:00.569Z,25.18
2018-09-25T07:19:36.199Z,24.59
2018-09-25T07:22:11.726Z,25.95
2018-09-25T07:24:47.810Z,24.77
2018-09-25T07:27:23.266Z,25.11
2018-09-25T07:29:58.875Z,24.87
2018-09-25T07:32:34.642Z,25.15
2018-09-25T07:35:10.255Z,25.96
2018-09-25T07:37:45.900Z,24.85
2018-09-25T07:40:21.450Z,25.00
2018-09-25T07:42:57.082Z,24.19
2018-09-25T07:45:32.684Z,24.01
2018-09-25T07:48:08.493Z,23.34
2018-09-25T07:50:44.342Z,22.50
2018-09-25T07:53:19.909Z,23.34
2018-09-25T07:55:56.353Z,20.80
2018-09-25T07:58:31.930Z,21.59
2018-09-25T08:01:07.448Z,22.70
2018-09-25T08:03:43.030Z,23.28
2018-09-25T08:06:18.482Z,23.35
2018-09-25T08:08:53.938Z,22.79
2018-09-25T08:11:29.724Z,24.03
2018-09-25T08:14:05.562Z,22.58
2018-09-25T08:16:41.371Z,22.56
2018-09-25T08:19:16.820Z,22.36
2018-09-25T08:21:52.689Z,22.87
2018-09-25T08:24:27.994Z,22.93
2018-09-25T08:27:03.643Z,23.30
2018-09-25T08:29:39.193Z,22.88
2018-09-25T08:32:14.905Z,22.80
2018-09-25T08:34:50.455Z,21.48
2018-09-25T08:37:26.196Z,20.68
2018-09-25T08:40:01.839Z,22.77
2018-09-25T08:42:37.513Z,21.39
2018-09-25T08:45:13.053Z,21.38
2018-09-25T08:47:48.583Z,20.64
2018-09-25T08:50:23.939Z,19.80
2018-09-25T08:52:59.703Z,19.95
2018-09-25T08:55:35.324Z,21.30
2018-09-25T08:58:11.213Z,22.24
2018-09-25T09:00:46.820Z,20.84
2018-09-25T09:03:22.710Z,21.50
2018-09-25T09:05:58.402Z,22.18
2018-09-25T09:08:34.082Z,21.91
2018-09-25T09:11:09.735Z,20.81
2018-09-25T09:13:45.453Z,21.32
2018-09-25T09:16:21.967Z,21.04
2018-09-25T09:18:57.397Z,20.74
2018-09-25T09:21:34.060Z,19.81
2018-09-25T09:24:09.768Z,20.34
2018-09-25T09:26:45.269Z,20.09
2018-09-25T09:29:20.811Z,20.05
2018-09-25T09:31:56.302Z,19.26
2018-09-25T09:34:31.640Z,19.82
2018-09-25T09:37:06.960Z,20.21
2018-09-25T09:39:42.517Z,20.98
2018-09-25T09:42:17.854Z,21.32
2018-09-25T09:44:53.370Z,19.96
2018-09-25T09:47:29.518Z,19.70
2018-09-25T09:50:05.091Z,20.20
2018-09-25T09:52:40.564Z,20.30
2018-09-25T09:55:15.969Z,21.38
2018-09-25T09:57:51.360Z,21.00
2018-09-25T10:00:26.932Z,20.07
2018-09-25T10:03:02.498Z,20.56
2018-09-25T10:05:38.003Z,20.67
2018-09-25T10:08:13.629Z,20.77
2018-09-25T10:10:49.066Z,20.58
2018-09-25T10:13:25.176Z,20.21
2018-09-25T10:16:01.065Z,20.74
2018-09-25T10:18:36.588Z,21.65
2018-09-25T10:21:12.297Z,20.36
2018-09-25T10:23:47.687Z,20.62
2018-09-25T10:26:23.425Z,19.15
2018-09-25T10:28:58.840Z,20.56
2018-09-25T10:31:34.882Z,20.24
2018-09-25T10:34:10.880Z,20.22
2018-09-25T10:36:46.597Z,21.26
2018-09-25T10:39:22.317Z,21.13
2018-09-25T10:41:58.096Z,20.89
2018-09-25T10:44:33.847Z,21.67
2018-09-25T10:47:09.810Z,20.45
2018-09-25T10:49:45.492Z,22.22
2018-09-25T10:52:21.207Z,21.56
2018-09-25T10:54:57.472Z,21.69
2018-09-25T10:57:33.257Z,20.30
2018-09-25T11:00:09.342Z,19.81
2018-09-25T11:02:45.280Z,20.17
2018-09-25T11:05:21.020Z,20.66
2018-09-25T11:07:56.909Z,20.74
2018-09-25T11:10:32.613Z,22.37
2018-09-25T11:13:08.567Z,21.51
2018-09-25T11:15:44.800Z,22.02
2018-09-25T11:18:20.682Z,22.96
2018-09-25T11:20:56.374Z,21.62
2018-09-25T11:23:32.046Z,22.40
2018-09-25T11:26:07.693Z,22.29
2018-09-25T11:28:43.240Z,21.01
2018-09-25T11:31:19.075Z,21.21
2018-09-25T11:33:55.035Z,20.14
2018-09-25T11:36:31.829Z,20.39
2018-09-25T11:39:07.373Z,21.34
2018-09-25T11:41:42.972Z,21.23
2018-09-25T11:44:18.544Z,21.24
2018-09-25T11:46:54.262Z,20.74
2018-09-25T11:49:29.668Z,21.12
2018-09-25T11:52:05.547Z,20.54
2018-09-25T11:54:41.204Z,20.81
2018-09-25T11:57:16.845Z,19.39
2018-09-25T11:59:52.832Z,20.01
2018-09-25T12:02:28.561Z,20.56
2018-09-25T12:05:04.565Z,19.46
2018-09-25T12:07:40.180Z,19.54
2018-09-25T12:10:17.131Z,19.97
2018-09-25T12:12:52.813Z,20.42
2018-09-25T12:15:28.771Z,20.65
2018-09-25T12:18:04.578Z,21.65
2018-09-25T12:20:40.178Z,22.18
2018-09-25T12:23:16.176Z,22.29
2018-09-25T12:25:51.963Z,21.26
2018-09-25T12:28:27.473Z,21.88
2018-09-25T12:31:03.132Z,21.56
2018-09-25T12:33:39.134Z,20.78
2018-09-25T12:36:14.988Z,20.65
2018-09-25T12:38:51.245Z,20.49
2018-09-25T12:41:27.411Z,20.81
2018-09-25T12:44:05.245Z,21.81
2018-09-25T12:46:40.998Z,21.75
2018-09-25T12:49:16.911Z,21.84
2018-09-25T12:51:52.436Z,21.62
2018-09-25T12:54:28.170Z,21.74
2018-09-25T12:57:04.842Z,21.17
2018-09-25T12:59:40.455Z,20.70
2018-09-25T13:02:16.314Z,21.19
2018-09-25T13:04:51.739Z,22.11
2018-09-25T13:07:28.535Z,22.98
2018-09-25T13:10:04.462Z,23.42
2018-09-25T13:12:40.099Z,23.53
2018-09-25T13:15:15.867Z,23.22
2018-09-25T13:17:51.551Z,22.70
2018-09-25T13:20:27.274Z,22.96
2018-09-25T13:23:02.798Z,22.64
2018-09-25T13:25:38.401Z,24.23
2018-09-25T13:28:14.132Z,24.62
2018-09-25T13:30:49.850Z,23.25
2018-09-25T13:33:25.784Z,23.51
2018-09-25T13:36:01.903Z,22.70
2018-09-25T13:38:37.739Z,22.64
2018-09-25T13:41:13.524Z,22.93
2018-09-25T13:43:49.068Z,22.82
2018-09-25T13:46:24.919Z,22.73
2018-09-25T13:49:00.399Z,22.81
2018-09-25T13:51:36.004Z,24.68
2018-09-25T13:54:11.713Z,24.09
2018-09-25T13:56:47.502Z,23.74
2018-09-25T13:59:22.890Z,23.17
2018-09-25T14:01:58.691Z,23.91
2018-09-25T14:04:34.857Z,24.01
2018-09-25T14:07:11.049Z,24.25
2018-09-25T14:09:47.826Z,23.21
2018-09-25T14:12:23.770Z,23.88
2018-09-25T14:15:00.287Z,23.96
2018-09-25T14:17:35.944Z,23.03
2018-09-25T14:20:11.576Z,24.19
2018-09-25T14:22:47.448Z,24.02
2018-09-25T14:25:23.411Z,23.52
2018-09-25T14:27:59.972Z,23.04
2018-09-25T14:30:36.229Z,24.16
2018-09-25T14:33:11.965Z,24.08
2018-09-25T14:35:47.864Z,24.10
2018-09-25T14:38:25.010Z,24.00
2018-09-25T14:41:01.803Z,24.31
2018-09-25T14:43:37.901Z,24.84
2018-09-25T14:46:14.374Z,24.43
2018-09-25T14:48:50.311Z,25.28
2018-09-25T14:51:25.989Z,25.58
2018-09-25T14:54:02.588Z,25.17
2018-09-25T14:56:38.255Z,25.16
2018-09-25T14:59:14.137Z,24.98
2018-09-25T15:01:49.795Z,25.23
2018-09-25T15:04:25.352Z,25.21
2018-09-25T15:07:01.145Z,25.06
2018-09-25T15:09:36.874Z,25.40
2018-09-25T15:12:12.592Z,24.66
2018-09-25T15:14:48.060Z,24.54
2018-09-25T15:17:23.593Z,24.50
2018-09-25T15:19:59.862Z,25.12
2018-09-25T15:22:35.453Z,25.30
2018-09-25T15:25:12.136Z,25.01
2018-09-25T15:27:47.855Z,25.09
2018-09-25T15:30:23.461Z,25.48
2018-09-25T15:32:59.492Z,25.67
2018-09-25T15:35:35.078Z,26.86
2018-09-25T15:38:10.633Z,26.33
2018-09-25T15:40:46.385Z,26.54
2018-09-25T15:43:22.006Z,27.86
2018-09-25T15:45:58.644Z,26.49
2018-09-25T15:48:34.702Z,27.05
2018-09-25T15:51:10.440Z,26.26
2018-09-25T15:53:45.962Z,26.67
2018-09-25T15:56:21.563Z,26.22
2018-09-25T15:58:57.188Z,27.53
2018-09-25T16:01:32.669Z,27.37
2018-09-25T16:04:08.418Z,27.24
2018-09-25T16:06:44.386Z,26.86
2018-09-25T16:09:20.543Z,27.17
2018-09-25T16:11:56.370Z,27.74
2018-09-25T16:14:32.374Z,27.22
2018-09-25T16:17:09.336Z,27.22
2018-09-25T16:19:45.337Z,27.86
2018-09-25T16:22:21.039Z,28.22
2018-09-25T16:24:56.983Z,28.06
2018-09-25T16:27:33.295Z,28.35
2018-09-25T16:30:09.217Z,28.43
2018-09-25T16:32:45.713Z,28.77
2018-09-25T16:35:22.738Z,29.18
2018-09-25T16:37:58.461Z,29.49
2018-09-25T16:40:33.928Z,30.14
2018-09-25T16:43:09.663Z,29.92
2018-09-25T16:45:45.398Z,30.29
2018-09-25T16:48:21.091Z,30.56
2018-09-25T16:50:56.763Z,31.14
2018-09-25T16:53:32.640Z,31.66
2018-09-25T16:56:08.447Z,31.71
2018-09-25T16:58:44.468Z,32.30
2018-09-25T17:01:20.268Z,32.83
2018-09-25T17:03:55.864Z,32.84
2018-09-25T17:06:31.722Z,32.54
2018-09-25T17:09:07.344Z,33.43
2018-09-25T17:11:43.756Z,33.50
2018-09-25T17:14:20.063Z,32.96
2018-09-25T17:16:56.275Z,33.27
2018-09-25T17:19:32.570Z,33.48
2018-09-25T17:22:08.547Z,33.05
2018-09-25T17:24:44.468Z,33.24
2018-09-25T17:27:20.691Z,33.58
2018-09-25T17:29:56.601Z,33.48
2018-09-25T17:32:32.329Z,34.31
2018-09-25T17:35:08.409Z,33.95
2018-09-25T17:37:44.807Z,34.18
2018-09-25T17:40:20.994Z,34.99
2018-09-25T17:42:57.243Z,35.16
2018-09-25T17:45:40.104Z,35.08
2018-09-25T17:48:15.751Z,34.81
2018-09-25T17:50:51.792Z,35.83
2018-09-25T17:53:27.548Z,35.65
2018-09-25T17:56:03.895Z,36.44
2018-09-25T17:58:39.600Z,35.97
2018-09-25T18:01:15.847Z,36.02
2018-09-25T18:03:51.748Z,36.46
2018-09-25T18:06:27.678Z,36.75
2018-09-25T18:09:03.488Z,36.54
2018-09-25T18:11:39.709Z,37.30
2018-09-25T18:14:16.896Z,37.28
2018-09-25T18:16:52.749Z,37.47
2018-09-25T18:19:28.864Z,37.86
2018-09-25T18:22:04.740Z,37.87
2018-09-25T18:24:40.609Z,37.97
2018-09-25T18:27:16.860Z,38.46
2018-09-25T18:29:52.561Z,38.57
2018-09-25T18:32:28.499Z,38.59
2018-09-25T18:35:06.293Z,39.28
2018-09-25T18:37:42.650Z,39.83
2018-09-25T18:40:18.267Z,39.85
2018-09-25T18:42:54.672Z,39.69
2018-09-25T18:45:30.737Z,39.92
2018-09-25T18:48:06.327Z,39.97
2018-09-25T18:50:42.010Z,40.33
2018-09-25T18:53:18.499Z,40.71
2018-09-25T18:55:54.149Z,40.67
2018-09-25T18:58:29.835Z,40.80
2018-09-25T19:01:05.946Z,40.61
2018-09-25T19:03:41.993Z,41.42
2018-09-25T19:06:17.932Z,41.46
2018-09-25T19:08:53.784Z,41.40
2018-09-25T19:11:29.558Z,41.10
2018-09-25T19:14:05.425Z,41.55
2018-09-25T19:16:41.212Z,41.60
2018-09-25T19:19:17.140Z,41.64
2018-09-25T19:21:53.557Z,42.16
2018-09-25T19:24:29.606Z,42.60
2018-09-25T19:27:05.979Z,42.91
2018-09-25T19:29:42.122Z,43.34
2018-09-25T19:32:18.580Z,43.55
2018-09-25T19:34:54.404Z,43.46
2018-09-25T19:37:30.417Z,43.17
2018-09-25T19:40:06.208Z,43.18
2018-09-25T19:42:42.108Z,43.43
2018-09-25T19:45:18.498Z,43.60
2018-09-25T19:47:54.306Z,43.75
2018-09-25T19:50:30.187Z,44.08
2018-09-25T19:53:06.038Z,44.50
2018-09-25T19:55:44.064Z,44.62
2018-09-25T19:58:20.106Z,45.08
2018-09-25T20:00:55.923Z,44.62
2018-09-25T20:03:32.119Z,44.76
2018-09-25T20:06:07.822Z,44.95
2018-09-25T20:08:43.728Z,44.15
2018-09-25T20:11:20.714Z,44.84
2018-09-25T20:13:57.850Z,45.10
2018-09-25T20:16:34.202Z,46.15
2018-09-25T20:19:10.139Z,46.43
2018-09-25T20:21:45.876Z,46.25
2018-09-25T20:24:21.670Z,46.62
2018-09-25T20:26:57.545Z,46.92
2018-09-25T20:29:33.977Z,46.85
2018-09-25T20:32:10.323Z,47.14
2018-09-25T20:34:46.544Z,47.37
2018-09-25T20:37:24.131Z,48.32
2018-09-25T20:40:00.360Z,49.22
2018-09-25T20:42:36.842Z,48.71
2018-09-25T20:45:13.106Z,48.64
2018-09-25T20:47:50.536Z,48.43
2018-09-25T20:50:29.407Z,48.13
2018-09-25T20:53:07.282Z,47.49
2018-09-25T20:55:43.151Z,46.65
2018-09-25T20:58:19.047Z,47.05
2018-09-25T21:00:54.594Z,47.52
2018-09-25T21:03:30.942Z,47.31
2018-09-25T21:06:07.543Z,47.30
2018-09-25T21:08:43.617Z,46.99
2018-09-25T21:11:19.623Z,47.22
2018-09-25T21:13:55.979Z,46.72
2018-09-25T21:16:31.726Z,46.21
2018-09-25T21:19:07.318Z,46.09
2018-09-25T21:21:42.895Z,45.99
2018-09-25T21:24:19.055Z,45.40
2018-09-25T21:26:55.527Z,45.37
2018-09-25T21:29:31.050Z,44.96
2018-09-25T21:32:06.716Z,45.19
2018-09-25T21:34:42.273Z,45.08
2018-09-25T21:37:18.054Z,46.00
2018-09-25T21:39:54.098Z,46.11
2018-09-25T21:42:29.671Z,46.26
2018-09-25T21:45:05.509Z,46.23
2018-09-25T21:47:40.979Z,46.38
2018-09-25T21:50:16.648Z,46.86
2018-09-25T21:52:52.083Z,46.86
2018-09-25T21:55:27.739Z,47.09
2018-09-25T21:58:03.489Z,47.51
2018-09-25T22:00:39.329Z,48.10
2018-09-25T22:03:14.957Z,47.20
2018-09-25T22:05:50.527Z,47.29
2018-09-25T22:08:26.283Z,47.56
2018-09-25T22:11:01.784Z,47.84
2018-09-25T22:13:37.274Z,47.09
2018-09-25T22:16:12.879Z,46.83
2018-09-25T22:18:48.368Z,46.87
2018-09-25T22:21:24.174Z,46.87
2018-09-25T22:24:00.364Z,47.10
2018-09-25T22:26:35.903Z,47.04
2018-09-25T22:29:11.336Z,47.10
2018-09-25T22:31:46.758Z,46.76
2018-09-25T22:34:22.410Z,47.16
2018-09-25T22:36:58.582Z,47.79
2018-09-25T22:39:34.217Z,47.67
2018-09-25T22:42:09.907Z,47.43
2018-09-25T22:44:45.460Z,47.85
2018-09-25T22:47:21.437Z,47.75
2018-09-25T22:49:57.231Z,48.02
2018-09-25T22:52:32.637Z,48.30
2018-09-25T22:55:08.070Z,48.99
2018-09-25T22:57:43.772Z,48.35
2018-09-25T23:00:20.179Z,48.11
2018-09-25T23:02:55.744Z,48.46
2018-09-25T23:05:31.317Z,48.78
2018-09-25T23:08:07.000Z,48.70
2018-09-25T23:10:42.684Z,49.28
2018-09-25T23:13:18.203Z,49.23
2018-09-25T23:15:53.656Z,48.44
2018-09-25T23:18:29.171Z,48.46
2018-09-25T23:21:04.808Z,49.25
2018-09-25T23:23:40.304Z,49.03
2018-09-25T23:26:15.900Z,49.83
2018-09-25T23:28:51.650Z,49.46
2018-09-25T23:31:27.009Z,49.33
2018-09-25T23:34:02.677Z,49.07
2018-09-25T23:36:38.307Z,48.55
2018-09-25T23:39:15.440Z,48.44
2018-09-25T23:42:21.070Z,48.67
2018-09-25T23:45:08.568Z,48.84
2018-09-25T23:47:46.493Z,48.00
2018-09-25T23:50:21.947Z,48.17
2018-09-25T23:53:05.462Z,48.21
2018-09-25T23:55:39.927Z,47.29
2018-09-25T23:58:21.368Z,47.22
